Time;durP1;ratioP1;P1;durP2;ratioP2;P2;SDS_P1;SDS_P2;PMS_P1;PMS_P2;Temp;Humidity;BMP_temperature;BMP_pressure;BME280_temperature;BME280_humidity;BME280_pressure;Samples;Min_cycle;Max_cycle;Signal;HPM_P1;HPM_P2
2023/08/11 00:00:47;;;;;;;4.45;3.85;;;;;;;17.71;89.61;101934.56;5098089;28;20031;-50
2023/08/11 00:03:13;;;;;;;5.63;4.00;;;;;;;17.65;90.91;101935.97;5099622;28;20020;-51
2023/08/11 00:05:39;;;;;;;4.97;3.63;;;;;;;17.63;89.95;101931.69;5096301;28;20034;-51
2023/08/11 00:08:08;;;;;;;4.78;3.88;;;;;;;17.61;91.82;101937.22;5098376;28;20047;-50
2023/08/11 00:10:35;;;;;;;4.78;3.97;;;;;;;17.55;91.94;101937.75;5095884;28;20028;-50
2023/08/11 00:13:01;;;;;;;5.03;4.50;;;;;;;17.53;91.84;101929.81;5098095;28;20177;-51
2023/08/11 00:15:28;;;;;;;4.50;3.97;;;;;;;17.51;91.87;101931.81;5098308;28;20020;-54
2023/08/11 00:17:57;;;;;;;7.60;4.55;;;;;;;17.47;92.54;101921.47;5100109;28;20480;-51
2023/08/11 00:20:23;;;;;;;;;;;;;;;17.57;88.68;101925.88;5097642;28;20058;-52
2023/08/11 00:22:49;;;;;;;5.65;4.50;;;;;;;17.43;91.87;101926.25;5096085;28;19912;-52
2023/08/11 00:25:14;;;;;;;5.90;4.70;;;;;;;17.40;92.24;101937.25;5102058;28;20054;-50
2023/08/11 00:27:39;;;;;;;5.88;4.55;;;;;;;17.35;93.20;101932.31;5099862;28;20032;-51
2023/08/11 00:30:05;;;;;;;7.60;4.25;;;;;;;17.30;93.08;101922.97;5099374;28;20490;-50
2023/08/11 00:32:31;;;;;;;7.40;5.43;;;;;;;17.31;93.76;101930.88;5100121;28;20086;-50
2023/08/11 00:34:56;;;;;;;7.07;4.68;;;;;;;17.26;94.11;101930.44;5099825;28;20453;-51
2023/08/11 00:37:22;;;;;;;5.00;4.13;;;;;;;17.24;94.80;101932.41;5092642;28;20110;-50
2023/08/11 00:39:47;;;;;;;4.40;3.97;;;;;;;17.22;93.86;101931.72;5097383;28;20031;-51
2023/08/11 00:42:13;;;;;;;7.45;4.18;;;;;;;17.17;94.21;101929.41;5097848;28;20032;-50
2023/08/11 00:44:38;;;;;;;7.03;4.53;;;;;;;17.12;94.06;101925.41;5098433;28;20050;-50
2023/08/11 00:47:05;;;;;;;5.68;4.20;;;;;;;17.11;94.64;101923.75;5096639;28;20020;-50
2023/08/11 00:49:30;;;;;;;5.75;4.30;;;;;;;17.05;95.83;101917.06;5099926;28;20034;-51
2023/08/11 00:51:56;;;;;;;6.15;4.40;;;;;;;17.05;95.58;101914.38;5096272;28;20118;-50
2023/08/11 00:54:21;;;;;;;7.22;4.40;;;;;;;16.99;95.69;101907.72;5100182;28;20110;-50
2023/08/11 00:56:48;;;;;;;6.55;4.35;;;;;;;16.98;96.45;101907.84;5096902;28;20031;-50
2023/08/11 00:59:15;;;;;;;5.85;4.35;;;;;;;16.96;96.55;101899.91;5094487;28;20020;-53
2023/08/11 01:01:41;;;;;;;6.35;4.25;;;;;;;16.95;96.07;101900.94;5094762;28;20115;-51
2023/08/11 01:04:07;;;;;;;10.18;4.63;;;;;;;16.89;96.96;101895.25;5093688;28;20114;-50
2023/08/11 01:06:41;;;;;;;6.07;4.32;;;;;;;16.88;96.76;101890.84;5092885;28;20485;-52
2023/08/11 01:09:29;;;;;;;7.57;4.75;;;;;;;16.83;97.01;101893.88;5096853;28;20032;-52
2023/08/11 01:12:04;;;;;;;5.13;4.53;;;;;;;16.82;96.91;101892.22;5100347;28;20032;-50
2023/08/11 01:14:49;;;;;;;5.30;4.80;;;;;;;16.79;96.52;101900.53;5098275;28;20769;-50
2023/08/11 01:17:17;;;;;;;7.70;4.95;;;;;;;16.75;96.57;101896.38;5097695;28;20040;-50
2023/08/11 01:19:43;;;;;;;6.35;4.80;;;;;;;16.72;96.57;101897.50;5094356;28;20472;-50
2023/08/11 01:22:14;;;;;;;5.57;5.07;;;;;;;16.68;96.30;101890.69;5096077;28;20023;-50
2023/08/11 01:24:42;;;;;;;5.45;4.93;;;;;;;16.63;96.84;101882.19;5092680;28;20020;-50
2023/08/11 01:27:08;;;;;;;5.97;5.20;;;;;;;16.63;97.19;101887.56;5092217;28;20054;-50
2023/08/11 01:29:34;;;;;;;7.20;5.22;;;;;;;16.60;96.90;101891.38;5097415;28;20313;-49
2023/08/11 01:31:59;;;;;;;8.05;5.70;;;;;;;16.58;97.02;101890.63;5091557;28;20025;-50
2023/08/11 01:34:24;;;;;;;8.23;5.93;;;;;;;16.55;97.50;101885.53;5103531;28;20031;-51
2023/08/11 01:37:00;;;;;;;5.97;5.22;;;;;;;16.51;97.35;101886.78;5100290;28;20024;-51
2023/08/11 01:39:26;;;;;;;7.47;5.55;;;;;;;16.50;97.85;101893.13;5102093;28;20370;-50
2023/08/11 01:41:52;;;;;;;7.78;5.75;;;;;;;16.48;97.83;101889.72;5097266;27;20066;-51
2023/08/11 01:44:18;;;;;;;7.00;5.15;;;;;;;16.47;97.97;101893.41;5099458;28;20489;-50
2023/08/11 01:46:45;;;;;;;5.68;4.97;;;;;;;16.46;97.95;101891.69;5097842;28;20024;-50
2023/08/11 01:49:12;;;;;;;6.00;5.40;;;;;;;16.42;98.42;101892.91;5098518;28;20111;-51
2023/08/11 01:51:41;;;;;;;7.53;5.50;;;;;;;16.38;98.48;101889.66;5083245;28;20020;-51
2023/08/11 01:54:08;;;;;;;6.40;5.80;;;;;;;16.38;97.90;101881.59;5092328;28;20469;-50
2023/08/11 01:56:33;;;;;;;7.75;5.60;;;;;;;16.33;97.69;101873.09;5096303;28;20431;-50
2023/08/11 01:58:58;;;;;;;8.00;5.55;;;;;;;16.31;97.90;101876.91;5099922;28;20024;-52
2023/08/11 02:01:24;;;;;;;7.50;5.55;;;;;;;16.26;99.01;101879.97;5096792;28;20028;-50
2023/08/11 02:03:49;;;;;;;6.40;5.28;;;;;;;16.28;98.89;101878.00;5098405;28;20039;-53
2023/08/11 02:06:15;;;;;;;8.38;5.65;;;;;;;16.24;99.00;101876.59;5099887;28;20429;-51
2023/08/11 02:08:40;;;;;;;6.43;5.60;;;;;;;16.24;98.79;101876.59;5097493;28;20497;-50
2023/08/11 02:11:06;;;;;;;7.32;5.75;;;;;;;16.18;99.22;101872.56;5098265;28;20027;-50
2023/08/11 02:13:31;;;;;;;6.88;5.35;;;;;;;16.18;99.52;101871.72;5101821;28;20381;-51
2023/08/11 02:15:56;;;;;;;7.88;6.13;;;;;;;16.16;99.18;101871.00;5099648;28;20028;-53
2023/08/11 02:18:22;;;;;;;7.65;6.05;;;;;;;16.14;99.46;101867.59;5098936;28;20421;-52
2023/08/11 02:20:47;;;;;;;9.55;5.78;;;;;;;16.11;99.73;101866.03;5097835;28;20028;-51
2023/08/11 02:23:13;;;;;;;8.02;6.47;;;;;;;16.08;100.00;101856.41;5097602;28;20084;-50
2023/08/11 02:25:39;;;;;;;7.45;6.47;;;;;;;16.03;100.00;101858.63;5094794;28;20024;-50
2023/08/11 02:28:04;;;;;;;7.70;5.40;;;;;;;15.99;100.00;101856.34;5096305;28;20030;-50
2023/08/11 02:30:30;;;;;;;6.75;6.10;;;;;;;16.00;100.00;101869.59;5100635;28;20016;-52
2023/08/11 02:32:56;;;;;;;6.93;6.22;;;;;;;16.01;100.00;101875.81;5093101;28;20122;-50
2023/08/11 02:35:22;;;;;;;7.57;6.50;;;;;;;15.98;100.00;101868.03;5103288;28;20522;-51
2023/08/11 02:37:48;;;;;;;7.13;6.20;;;;;;;15.95;100.00;101868.28;5098922;28;20040;-50
2023/08/11 02:40:14;;;;;;;8.30;6.78;;;;;;;15.93;100.00;101876.44;5103446;28;20030;-50
2023/08/11 02:42:48;;;;;;;7.95;6.47;;;;;;;15.86;100.00;101870.75;5099372;28;20401;-50
2023/08/11 02:45:13;;;;;;;8.73;6.50;;;;;;;15.88;100.00;101871.47;5100087;28;20039;-53
2023/08/11 02:47:39;;;;;;;8.38;6.38;;;;;;;15.86;100.00;101881.47;5095826;28;20069;-50
2023/08/11 02:50:05;;;;;;;7.80;6.72;;;;;;;15.85;100.00;101876.22;5098015;28;20110;-50
2023/08/11 02:52:30;;;;;;;9.65;7.72;;;;;;;15.84;100.00;101882.59;5096503;28;20047;-53
2023/08/11 02:54:56;;;;;;;8.45;7.25;;;;;;;15.82;100.00;101882.72;5102075;28;20059;-50
2023/08/11 02:57:21;;;;;;;10.90;7.25;;;;;;;15.81;100.00;101881.00;5098684;28;20088;-52
2023/08/11 02:59:49;;;;;;;9.57;7.45;;;;;;;15.78;100.00;101877.72;5099750;28;20035;-50
2023/08/11 03:02:16;;;;;;;10.60;7.60;;;;;;;15.77;100.00;101874.22;5097745;28;20469;-50
2023/08/11 03:04:42;;;;;;;8.00;7.20;;;;;;;15.73;100.00;101870.88;5103342;28;20099;-51
2023/08/11 03:07:09;;;;;;;11.77;7.35;;;;;;;15.71;100.00;101864.78;5097966;28;20026;-51
2023/08/11 03:09:35;;;;;;;8.43;7.57;;;;;;;15.70;100.00;101865.78;5102355;28;20020;-51
2023/08/11 03:12:00;;;;;;;8.30;7.15;;;;;;;15.66;100.00;101861.66;5100201;28;20031;-50
2023/08/11 03:14:26;;;;;;;10.57;7.43;;;;;;;15.64;100.00;101860.94;5098100;28;20026;-50
2023/08/11 03:16:52;;;;;;;8.07;7.10;;;;;;;15.64;100.00;101857.41;5098680;28;20542;-50
2023/08/11 03:19:17;;;;;;;9.25;7.38;;;;;;;15.63;100.00;101861.91;5103758;28;20032;-50
2023/08/11 03:21:43;;;;;;;10.68;8.00;;;;;;;15.61;100.00;101863.00;5099292;28;20039;-50
2023/08/11 03:24:08;;;;;;;10.27;8.32;;;;;;;15.59;100.00;101859.59;5101569;28;20118;-50
2023/08/11 03:26:33;;;;;;;11.27;8.63;;;;;;;15.57;100.00;101866.91;5094703;28;20397;-50
2023/08/11 03:28:59;;;;;;;11.38;8.38;;;;;;;15.53;100.00;101864.47;5100178;28;20019;-54
2023/08/11 03:31:24;;;;;;;9.30;8.40;;;;;;;15.58;100.00;101868.63;5098707;28;20020;-50
2023/08/11 03:33:49;;;;;;;13.25;8.73;;;;;;;15.53;100.00;101864.47;5101624;28;20024;-50
2023/08/11 03:36:15;;;;;;;11.35;9.00;;;;;;;15.52;100.00;101861.91;5096654;28;20484;-50
2023/08/11 03:38:40;;;;;;;11.98;8.77;;;;;;;15.52;100.00;101860.13;5100044;28;20485;-50
2023/08/11 03:41:06;;;;;;;11.98;9.60;;;;;;;15.48;100.00;101855.97;5100437;28;20059;-50
2023/08/11 03:43:31;;;;;;;12.82;8.93;;;;;;;15.48;100.00;101849.78;5101950;28;20030;-53
2023/08/11 03:45:57;;;;;;;10.52;9.02;;;;;;;15.46;100.00;101854.41;5096663;28;20047;-51
2023/08/11 03:48:22;;;;;;;13.23;10.02;;;;;;;15.40;100.00;101853.06;5101849;28;20038;-50
2023/08/11 03:50:48;;;;;;;12.70;9.63;;;;;;;15.42;100.00;101855.63;5093340;28;20127;-49
2023/08/11 03:53:14;;;;;;;12.20;9.70;;;;;;;15.38;100.00;101856.84;5100971;28;20127;-50
2023/08/11 03:55:43;;;;;;;12.60;9.50;;;;;;;15.34;100.00;101850.91;5099018;28;20456;-50
2023/08/11 03:58:08;;;;;;;11.32;9.80;;;;;;;15.34;100.00;101853.56;5095175;28;20055;-51
2023/08/11 04:00:34;;;;;;;10.93;9.32;;;;;;;15.35;100.00;101853.47;5100019;28;20123;-50
2023/08/11 04:03:00;;;;;;;16.00;9.85;;;;;;;15.34;100.00;101851.75;5102310;28;20028;-51
2023/08/11 04:05:25;;;;;;;13.98;10.82;;;;;;;15.33;100.00;101852.69;5102904;28;20099;-51
2023/08/11 04:07:50;;;;;;;11.85;9.95;;;;;;;15.29;100.00;101853.09;5099990;28;20457;-50
2023/08/11 04:10:16;;;;;;;11.68;10.35;;;;;;;15.29;100.00;101861.13;5096849;28;20066;-50
2023/08/11 04:12:41;;;;;;;13.50;10.70;;;;;;;15.27;100.00;101853.22;5097302;28;20028;-50
2023/08/11 04:15:07;;;;;;;12.85;11.15;;;;;;;15.27;100.00;101855.91;5099585;28;20509;-50
2023/08/11 04:17:33;;;;;;;14.55;10.45;;;;;;;15.25;100.00;101856.97;5097125;28;20031;-50
2023/08/11 04:19:59;;;;;;;14.68;10.65;;;;;;;15.24;100.00;101858.81;5098161;28;20366;-51
2023/08/11 04:22:25;;;;;;;17.08;11.10;;;;;;;15.21;100.00;101858.22;5099534;28;20054;-50
2023/08/11 04:24:50;;;;;;;15.60;11.93;;;;;;;15.22;100.00;101850.06;5097384;28;20063;-52
2023/08/11 04:27:16;;;;;;;13.32;10.30;;;;;;;15.19;100.00;101863.69;5098468;28;20081;-50
2023/08/11 04:29:41;;;;;;;20.52;11.70;;;;;;;15.22;100.00;101852.75;5098404;28;20024;-50
2023/08/11 04:32:06;;;;;;;15.20;11.07;;;;;;;15.20;100.00;101853.81;5098788;28;20020;-50
2023/08/11 04:34:32;;;;;;;14.10;11.05;;;;;;;15.19;100.00;101852.97;5100510;28;20100;-50
2023/08/11 04:36:57;;;;;;;16.30;11.32;;;;;;;15.16;100.00;101854.06;5095965;28;20113;-50
2023/08/11 04:39:23;;;;;;;14.50;11.10;;;;;;;15.18;100.00;101857.47;5092373;28;20060;-50
2023/08/11 04:41:48;;;;;;;19.15;11.80;;;;;;;15.19;100.00;101858.34;5097132;28;20037;-50
2023/08/11 04:44:14;;;;;;;18.52;11.75;;;;;;;15.16;100.00;101850.56;5093820;28;20036;-52
2023/08/11 04:46:40;;;;;;;16.67;12.43;;;;;;;15.16;100.00;101848.72;5095316;28;20028;-50
2023/08/11 04:49:05;;;;;;;18.52;12.48;;;;;;;15.18;100.00;101840.56;5098529;28;20444;-53
2023/08/11 04:51:31;;;;;;;16.55;11.65;;;;;;;15.16;100.00;101839.84;5099868;28;20508;-52
2023/08/11 04:54:00;;;;;;;16.88;11.38;;;;;;;15.20;100.00;101840.44;5097262;28;20020;-50
2023/08/11 04:56:26;;;;;;;16.07;11.80;;;;;;;15.20;100.00;101837.78;5098886;28;20028;-50
2023/08/11 04:58:53;;;;;;;16.58;11.02;;;;;;;15.23;100.00;101841.03;5097967;28;20074;-50
2023/08/11 05:01:20;;;;;;;18.08;12.43;;;;;;;15.24;100.00;101829.38;5095626;28;20036;-49
2023/08/11 05:03:45;;;;;;;17.25;11.68;;;;;;;15.25;100.00;101828.38;5098709;28;20031;-50
2023/08/11 05:06:11;;;;;;;17.00;11.52;;;;;;;15.27;100.00;101829.13;5099822;28;20032;-49
2023/08/11 05:08:37;;;;;;;16.48;11.52;;;;;;;15.28;100.00;101820.09;5099448;28;20043;-52
2023/08/11 05:11:03;;;;;;;14.70;12.10;;;;;;;15.30;100.00;101825.34;5092845;28;20040;-51
2023/08/11 05:13:28;;;;;;;20.35;12.13;;;;;;;15.34;100.00;101834.84;5088081;28;20032;-51
2023/08/11 05:15:54;;;;;;;16.83;11.43;;;;;;;15.34;100.00;101827.66;5097324;28;20023;-52
2023/08/11 05:18:19;;;;;;;16.00;10.90;;;;;;;15.38;100.00;101825.56;5092595;28;20603;-52
2023/08/11 05:20:46;;;;;;;16.20;11.80;;;;;;;15.41;100.00;101829.84;5097858;28;20458;-51
2023/08/11 05:23:11;;;;;;;16.30;11.57;;;;;;;15.45;100.00;101833.94;5095258;28;20024;-50
2023/08/11 05:25:37;;;;;;;19.38;11.48;;;;;;;15.50;100.00;101831.75;5097129;28;20476;-50
2023/08/11 05:28:02;;;;;;;16.33;11.38;;;;;;;15.52;100.00;101827.09;5089511;28;20106;-52
2023/08/11 05:30:28;;;;;;;15.02;10.70;;;;;;;15.56;100.00;101820.53;5097284;28;20032;-51
2023/08/11 05:32:54;;;;;;;17.42;10.88;;;;;;;15.61;100.00;101826.38;5098297;28;20077;-51
2023/08/11 05:35:19;;;;;;;15.75;10.35;;;;;;;15.65;100.00;101819.75;5100944;28;20382;-53
2023/08/11 05:37:47;;;;;;;14.25;10.35;;;;;;;15.69;100.00;101818.56;5094441;28;20039;-53
2023/08/11 05:40:12;;;;;;;12.93;9.77;;;;;;;15.77;100.00;101819.75;5094414;28;20062;-51
2023/08/11 05:42:38;;;;;;;15.30;10.30;;;;;;;15.82;100.00;101820.22;5094933;28;20456;-52
2023/08/11 05:45:04;;;;;;;14.00;9.25;;;;;;;15.87;100.00;101826.06;5093080;28;20482;-52
2023/08/11 05:47:29;;;;;;;16.15;10.43;;;;;;;15.94;100.00;101823.72;5102424;28;21017;-52
2023/08/11 05:49:55;;;;;;;14.98;10.73;;;;;;;16.00;100.00;101826.72;5096891;28;20429;-52
2023/08/11 05:52:20;;;;;;;12.95;9.27;;;;;;;16.05;100.00;101823.66;5100566;28;20027;-50
2023/08/11 05:54:45;;;;;;;15.43;9.68;;;;;;;16.12;100.00;101821.31;5094517;28;20099;-50
2023/08/11 05:57:11;;;;;;;15.50;9.38;;;;;;;16.18;100.00;101818.97;5098667;28;20040;-51
2023/08/11 05:59:37;;;;;;;20.00;10.02;;;;;;;16.25;100.00;101820.16;5101396;28;20023;-51
2023/08/11 06:02:03;;;;;;;12.63;9.85;;;;;;;16.31;100.00;101824.13;5096159;28;20035;-52
2023/08/11 06:04:28;;;;;;;15.10;9.52;;;;;;;16.33;100.00;101810.59;5089615;28;20028;-50
2023/08/11 06:06:53;;;;;;;15.32;9.35;;;;;;;16.45;100.00;101822.94;5092839;28;20854;-51
2023/08/11 06:09:19;;;;;;;16.90;9.20;;;;;;;16.52;100.00;101826.81;5096527;28;20484;-52
2023/08/11 06:11:45;;;;;;;13.05;9.70;;;;;;;16.60;100.00;101824.31;5095557;28;20097;-51
2023/08/11 06:14:10;;;;;;;14.50;9.25;;;;;;;16.65;100.00;101821.22;5091800;28;20024;-53
2023/08/11 06:16:36;;;;;;;13.82;8.57;;;;;;;16.71;100.00;101819.84;5094879;28;20039;-50
2023/08/11 06:19:01;;;;;;;15.95;8.45;;;;;;;16.78;100.00;101821.00;5090404;28;20338;-52
2023/08/11 06:21:27;;;;;;;9.00;7.90;;;;;;;16.82;100.00;101817.91;5098688;28;20028;-53
2023/08/11 06:23:53;;;;;;;15.07;8.52;;;;;;;16.90;100.00;101824.47;5093257;28;20059;-52
2023/08/11 06:26:18;;;;;;;10.98;7.35;;;;;;;16.98;100.00;101827.31;5099806;28;20059;-53
2023/08/11 06:28:45;;;;;;;9.82;7.15;;;;;;;17.07;100.00;101820.28;5092605;28;20056;-50
2023/08/11 06:31:10;;;;;;;13.30;7.47;;;;;;;17.17;100.00;101819.34;5095356;28;20374;-51
2023/08/11 06:33:36;;;;;;;13.30;7.32;;;;;;;17.27;97.61;101824.75;5097405;28;20084;-53
2023/08/11 06:36:01;;;;;;;13.65;6.68;;;;;;;17.42;97.80;101837.75;5095806;28;20501;-52
2023/08/11 06:38:26;;;;;;;10.18;7.22;;;;;;;17.57;97.40;101833.72;5086354;28;20030;-52
2023/08/11 06:40:52;;;;;;;11.13;6.78;;;;;;;17.69;97.79;101831.75;5096297;28;20058;-52
2023/08/11 06:43:17;;;;;;;9.20;6.97;;;;;;;17.88;97.90;101836.31;5095391;28;20477;-51
2023/08/11 06:45:44;;;;;;;10.98;6.68;;;;;;;18.01;97.82;101838.72;5091655;28;20056;-51
2023/08/11 06:48:10;;;;;;;15.60;6.75;;;;;;;18.19;96.53;101831.63;5096515;28;20028;-51
2023/08/11 06:50:35;;;;;;;12.57;6.25;;;;;;;18.36;95.22;101839.94;5086839;28;20049;-52
2023/08/11 06:53:01;;;;;;;9.18;6.65;;;;;;;18.46;94.28;101838.09;5092588;28;20036;-51
2023/08/11 06:55:26;;;;;;;8.90;6.13;;;;;;;18.57;92.00;101840.63;5096302;28;20416;-52
2023/08/11 06:57:51;;;;;;;12.68;6.13;;;;;;;18.67;91.00;101845.97;5093562;28;20028;-53
2023/08/11 07:00:17;;;;;;;8.57;6.53;;;;;;;18.81;91.27;101839.25;5095049;28;20032;-52
2023/08/11 07:02:42;;;;;;;14.77;5.90;;;;;;;18.95;91.54;101848.72;5086348;28;20040;-51
2023/08/11 07:05:08;;;;;;;10.57;5.97;;;;;;;19.22;90.46;101848.75;5087636;28;20031;-52
2023/08/11 07:07:33;;;;;;;8.32;5.43;;;;;;;19.40;90.16;101843.41;5090668;28;20044;-52
2023/08/11 07:09:59;;;;;;;9.38;5.82;;;;;;;19.57;90.17;101851.66;5096579;28;20026;-52
2023/08/11 07:12:24;;;;;;;8.68;5.13;;;;;;;19.85;88.42;101844.41;5093218;28;20069;-52
2023/08/11 07:14:50;;;;;;;8.00;5.20;;;;;;;20.15;86.99;101850.34;5091302;28;20089;-52
2023/08/11 07:17:16;;;;;;;8.68;5.38;;;;;;;20.48;86.33;101853.31;5094627;28;20088;-52
2023/08/11 07:19:41;;;;;;;7.75;4.85;;;;;;;20.78;84.52;101849.31;5093784;28;20473;-50
2023/08/11 07:22:07;;;;;;;8.68;5.25;;;;;;;21.07;81.16;101848.94;5095403;28;20111;-49
2023/08/11 07:24:32;;;;;;;9.23;5.10;;;;;;;21.42;79.95;101849.75;5103754;28;20027;-49
2023/08/11 07:26:57;;;;;;;7.68;4.68;;;;;;;21.72;77.65;101857.47;5099242;28;20058;-49
2023/08/11 07:29:23;;;;;;;6.80;4.95;;;;;;;21.94;74.89;101851.38;5096871;28;20082;-49
2023/08/11 07:31:48;;;;;;;6.15;4.35;;;;;;;22.37;76.14;101853.97;5094583;28;20123;-49
2023/08/11 07:34:13;;;;;;;6.60;4.38;;;;;;;22.64;74.12;101854.59;5096397;28;20078;-48
2023/08/11 07:36:40;;;;;;;9.25;4.53;;;;;;;22.87;72.97;101852.00;5099813;28;20101;-48
2023/08/11 07:39:09;;;;;;;8.25;4.35;;;;;;;23.11;69.74;101856.50;5097858;28;20428;-48
2023/08/11 07:41:35;;;;;;;;;;;;;;;23.27;78.21;101845.56;5100869;28;20105;-48
2023/08/11 07:44:00;;;;;;;6.93;4.63;;;;;;;23.67;69.71;101850.94;5098127;28;20377;-49
2023/08/11 07:46:26;;;;;;;7.47;4.38;;;;;;;23.85;67.08;101850.69;5095290;28;20371;-49
2023/08/11 07:48:51;;;;;;;10.30;4.32;;;;;;;24.13;68.92;101852.81;5098304;28;20078;-49
2023/08/11 07:51:16;;;;;;;11.88;4.32;;;;;;;24.37;68.34;101860.75;5094927;28;20059;-49
2023/08/11 07:53:44;;;;;;;5.80;4.32;;;;;;;24.50;65.93;101860.13;5100822;28;20032;-49
2023/08/11 07:56:11;;;;;;;9.32;4.18;;;;;;;24.80;64.11;101860.19;5095705;28;20124;-49
2023/08/11 07:58:36;;;;;;;7.07;4.20;;;;;;;25.01;61.26;101858.56;5098214;28;20028;-49
2023/08/11 08:01:01;;;;;;;9.57;4.30;;;;;;;25.29;61.47;101856.03;5091360;28;20039;-49
2023/08/11 08:03:27;;;;;;;5.60;3.78;;;;;;;25.48;62.11;101852.72;5094699;28;20028;-49
2023/08/11 08:05:52;;;;;;;7.43;4.18;;;;;;;25.73;60.16;101851.50;5103746;28;20020;-48
2023/08/11 08:08:18;;;;;;;8.20;3.78;;;;;;;25.93;59.15;101852.53;5091101;27;20456;-49
2023/08/11 08:10:43;;;;;;;7.18;3.90;;;;;;;26.13;57.45;101851.88;5098839;27;20035;-50
2023/08/11 08:13:08;;;;;;;6.30;3.95;;;;;;;26.32;56.89;101850.38;5097325;28;20481;-49
2023/08/11 08:15:34;;;;;;;4.45;3.63;;;;;;;26.55;56.89;101845.53;5099225;28;20366;-48
2023/08/11 08:18:00;;;;;;;6.63;3.60;;;;;;;26.69;55.71;101837.47;5097767;28;20028;-48
2023/08/11 08:20:25;;;;;;;7.70;3.85;;;;;;;26.84;55.01;101840.06;5100163;28;20034;-47
2023/08/11 08:22:51;;;;;;;5.72;3.38;;;;;;;27.04;55.81;101843.72;5096675;28;20556;-49
2023/08/11 08:25:16;;;;;;;7.47;3.55;;;;;;;27.18;54.14;101836.44;5096584;28;20384;-49
2023/08/11 08:27:42;;;;;;;5.35;3.33;;;;;;;27.35;54.75;101839.69;5093648;28;20465;-48
2023/08/11 08:30:10;;;;;;;7.45;2.80;;;;;;;27.59;54.39;101840.16;5095360;28;20040;-49
2023/08/11 08:32:37;;;;;;;8.57;3.80;;;;;;;27.80;53.39;101844.59;5092778;28;20024;-48
2023/08/11 08:35:03;;;;;;;6.18;3.10;;;;;;;28.02;53.13;101842.53;5100897;28;20063;-47
2023/08/11 08:37:29;;;;;;;6.38;3.60;;;;;;;28.27;53.73;101845.47;5092922;28;20436;-47
2023/08/11 08:39:55;;;;;;;5.32;3.03;;;;;;;28.41;51.96;101844.44;5096444;28;20028;-47
2023/08/11 08:42:21;;;;;;;7.00;3.17;;;;;;;28.64;49.97;101845.88;5096542;28;20023;-48
2023/08/11 08:44:48;;;;;;;4.72;3.28;;;;;;;28.84;50.23;101848.56;5100859;28;20048;-48
2023/08/11 08:47:16;;;;;;;5.95;2.88;;;;;;;29.02;48.41;101856.06;5098035;28;20098;-48
2023/08/11 08:49:43;;;;;;;3.20;2.90;;;;;;;29.05;49.66;101850.16;5099635;28;20031;-50
2023/08/11 08:52:08;;;;;;;4.15;2.80;;;;;;;29.35;48.91;101835.97;5098210;28;20024;-48
2023/08/11 08:54:34;;;;;;;6.07;3.10;;;;;;;29.49;50.78;101839.44;5099804;28;20019;-48
2023/08/11 08:57:03;;;;;;;8.13;2.80;;;;;;;29.73;48.04;101839.72;5097770;28;20093;-47
2023/08/11 08:59:29;;;;;;;5.65;2.70;;;;;;;29.74;47.63;101836.75;5098609;28;20040;-47
2023/08/11 09:01:56;;;;;;;7.40;2.80;;;;;;;29.86;45.32;101835.03;5095380;28;20028;-47
2023/08/11 09:04:21;;;;;;;5.70;2.58;;;;;;;30.18;46.85;101837.72;5098252;28;20024;-48
2023/08/11 09:06:47;;;;;;;4.70;2.80;;;;;;;30.16;48.14;101838.97;5095392;28;20023;-49
2023/08/11 09:09:13;;;;;;;3.47;2.70;;;;;;;30.36;47.63;101841.53;5094777;28;20402;-48
2023/08/11 09:11:39;;;;;;;3.65;2.10;;;;;;;30.55;46.19;101832.31;5095574;28;20031;-48
2023/08/11 09:14:06;;;;;;;7.90;2.50;;;;;;;30.70;43.94;101842.91;5098383;28;20482;-49
2023/08/11 09:16:33;;;;;;;5.60;2.53;;;;;;;30.75;43.95;101837.56;5098162;28;20016;-48
2023/08/11 09:18:59;;;;;;;3.60;2.80;;;;;;;31.07;43.68;101839.34;5095101;28;20118;-47
2023/08/11 09:21:25;;;;;;;4.35;2.55;;;;;;;31.33;44.67;101827.19;5098190;28;20039;-48
2023/08/11 09:23:57;;;;;;;3.28;2.20;;;;;;;31.34;44.29;101831.56;5095432;28;20045;-48
2023/08/11 09:26:23;;;;;;;6.93;2.50;;;;;;;31.49;43.82;101833.91;5088931;28;20028;-48
2023/08/11 09:28:49;;;;;;;3.03;2.03;;;;;;;31.58;42.82;101831.72;5097078;28;20027;-48
2023/08/11 09:31:15;;;;;;;5.68;2.40;;;;;;;31.97;43.70;101819.22;5087611;28;20431;-48
2023/08/11 09:33:40;;;;;;;4.03;2.33;;;;;;;32.01;40.47;101825.94;5096006;28;20067;-48
2023/08/11 09:36:06;;;;;;;4.13;2.30;;;;;;;32.17;43.26;101821.66;5062983;28;20115;-48
2023/08/11 09:38:31;;;;;;;4.43;2.10;;;;;;;32.13;40.17;101819.66;5094118;28;20020;-48
2023/08/11 09:41:02;;;;;;;6.63;2.10;;;;;;;32.08;42.27;101826.69;5089140;28;20023;-48
2023/08/11 09:43:29;;;;;;;4.05;2.20;;;;;;;31.85;40.02;101821.13;5089755;28;20519;-47
2023/08/11 09:45:55;;;;;;;2.88;2.22;;;;;;;31.89;41.76;101822.31;5095565;28;20040;-48
2023/08/11 09:48:22;;;;;;;2.95;1.92;;;;;;;32.06;41.05;101820.59;5097159;28;20485;-49
2023/08/11 09:50:49;;;;;;;6.60;2.35;;;;;;;32.25;41.02;101820.47;5097995;28;20038;-48
2023/08/11 09:53:15;;;;;;;4.63;2.60;;;;;;;32.34;39.95;101816.25;5094136;28;20021;-48
2023/08/11 09:55:42;;;;;;;5.65;2.53;;;;;;;32.41;38.88;101818.88;5093588;28;20492;-49
2023/08/11 09:58:10;;;;;;;6.18;2.30;;;;;;;32.72;41.23;101814.94;5067284;28;20485;-48
2023/08/11 10:00:36;;;;;;;5.65;2.17;;;;;;;32.72;39.76;101820.44;5092728;28;20059;-48
2023/08/11 10:03:06;;;;;;;4.55;2.10;;;;;;;32.91;41.08;101821.13;5098008;28;20055;-49
2023/08/11 10:05:35;;;;;;;4.15;2.15;;;;;;;33.03;39.50;101823.00;5095560;28;20020;-49
2023/08/11 10:08:05;;;;;;;3.85;1.88;;;;;;;33.15;40.21;101832.03;5094371;28;20056;-48
2023/08/11 10:10:33;;;;;;;4.93;2.08;;;;;;;33.22;38.66;101832.75;5088575;28;20028;-48
2023/08/11 10:13:14;;;;;;;4.85;2.35;;;;;;;33.34;39.72;101824.44;5098871;28;20367;-48
2023/08/11 10:15:40;;;;;;;3.83;2.30;;;;;;;33.61;38.17;101818.31;5097590;28;20076;-48
2023/08/11 10:18:06;;;;;;;3.90;2.22;;;;;;;33.67;39.09;101809.88;5090187;28;20514;-47
2023/08/11 10:20:32;;;;;;;3.95;2.17;;;;;;;33.88;39.06;101813.84;5092596;28;20021;-48
2023/08/11 10:22:58;;;;;;;2.47;1.70;;;;;;;33.77;37.90;101809.25;5091557;28;20042;-48
2023/08/11 10:25:24;;;;;;;4.82;2.13;;;;;;;33.99;37.39;101814.84;5100179;28;20031;-48
2023/08/11 10:27:51;;;;;;;4.63;2.10;;;;;;;34.07;36.60;101821.84;5092841;28;20039;-50
2023/08/11 10:30:17;;;;;;;3.38;1.65;;;;;;;34.13;38.09;101809.81;5094257;28;20116;-49
2023/08/11 10:32:42;;;;;;;3.40;1.75;;;;;;;34.30;36.77;101809.81;5094957;28;20031;-48
2023/08/11 10:35:19;;;;;;;2.80;1.90;;;;;;;34.31;38.41;101805.13;5089862;28;20016;-48
2023/08/11 10:37:55;;;;;;;5.70;1.85;;;;;;;34.40;36.32;101807.19;5091902;28;20405;-47
2023/08/11 10:40:20;;;;;;;2.65;2.10;;;;;;;34.52;34.79;101807.06;5094734;28;20032;-48
2023/08/11 10:42:46;;;;;;;3.63;1.80;;;;;;;34.47;36.26;101801.50;5094105;28;20028;-48
2023/08/11 10:45:15;;;;;;;3.40;1.83;;;;;;;34.50;35.26;101809.25;5083282;28;20044;-47
2023/08/11 10:47:50;;;;;;;4.15;1.98;;;;;;;34.62;34.75;101809.13;5099133;28;20034;-48
2023/08/11 10:50:17;;;;;;;2.78;1.70;;;;;;;34.80;35.67;101808.84;5095204;28;20032;-48
2023/08/11 10:52:42;;;;;;;5.63;1.98;;;;;;;34.82;33.74;101798.41;5092479;28;20033;-48
2023/08/11 10:55:09;;;;;;;3.08;1.60;;;;;;;34.95;35.71;101805.44;5091883;28;20488;-48
2023/08/11 10:57:34;;;;;;;2.08;1.80;;;;;;;34.94;35.30;101814.81;5093298;28;20080;-48
2023/08/11 11:00:00;;;;;;;1.90;1.70;;;;;;;35.17;34.91;101799.91;5101053;28;20028;-48
2023/08/11 11:02:25;;;;;;;4.13;1.60;;;;;;;35.14;34.14;101805.94;5098447;28;20035;-48
2023/08/11 11:04:52;;;;;;;3.45;1.70;;;;;;;35.11;33.79;101798.16;5100812;28;20028;-48
2023/08/11 11:07:22;;;;;;;5.68;2.10;;;;;;;34.96;35.49;101793.31;5091301;28;20028;-49
2023/08/11 11:09:47;;;;;;;4.28;1.80;;;;;;;35.05;35.81;101793.66;5096152;28;20024;-47
2023/08/11 11:12:14;;;;;;;4.03;1.73;;;;;;;35.07;33.88;101797.00;5097667;28;20016;-48
2023/08/11 11:14:39;;;;;;;2.90;2.10;;;;;;;35.32;33.93;101798.41;5097375;28;20111;-47